Time;durP1;ratioP1;P1;durP2;ratioP2;P2;SDS_P1;SDS_P2;PMS_P1;PMS_P2;Temp;Humidity;BMP_temperature;BMP_pressure;BME280_temperature;BME280_humidity;BME280_pressure;Samples;Min_cycle;Max_cycle;Signal;HPM_P1;HPM_P2
2021/11/21 00:01:41;;;;;;;0.17;0.17;;;5.90;99.90;;;;;;4993709;28;20030;-69
2021/11/21 00:04:07;;;;;;;1.30;1.20;;;5.90;99.90;;;;;;4994426;28;20041;-69
2021/11/21 00:06:33;;;;;;;0.15;0.15;;;5.90;99.90;;;;;;4994833;28;20093;-70
2021/11/21 00:08:58;;;;;;;0.25;0.20;;;5.90;99.90;;;;;;4994613;28;20030;-70
2021/11/21 00:11:24;;;;;;;1.27;1.20;;;5.90;99.90;;;;;;4994798;28;20085;-69
2021/11/21 00:13:52;;;;;;;0.70;0.70;;;5.90;99.90;;;;;;4994479;28;20096;-69
2021/11/21 00:16:18;;;;;;;0.15;0.15;;;5.90;99.90;;;;;;4994160;28;20757;-69
2021/11/21 00:18:44;;;;;;;1.38;1.27;;;6.00;99.90;;;;;;4994458;28;20551;-68
2021/11/21 00:21:10;;;;;;;0.63;0.63;;;5.90;99.90;;;;;;4994174;28;20034;-68
2021/11/21 00:23:36;;;;;;;2.42;0.80;;;5.90;99.90;;;;;;4993052;28;20030;-68
2021/11/21 00:26:02;;;;;;;0.65;0.65;;;5.80;99.90;;;;;;4994280;28;20042;-70
2021/11/21 00:28:28;;;;;;;0.55;0.55;;;5.80;99.90;;;;;;4992973;28;20034;-68
2021/11/21 00:30:54;;;;;;;2.58;2.38;;;5.80;99.90;;;;;;4992949;28;20088;-69
2021/11/21 00:33:20;;;;;;;5.47;3.50;;;5.70;99.90;;;;;;4994205;28;20374;-69
2021/11/21 00:35:46;;;;;;;0.77;0.77;;;5.70;99.90;;;;;;4994234;28;20030;-69
2021/11/21 00:38:13;;;;;;;2.20;0.65;;;5.70;99.90;;;;;;4992870;28;20041;-68
2021/11/21 00:40:39;;;;;;;5.72;1.77;;;5.70;99.90;;;;;;4993034;28;20038;-70
2021/11/21 00:43:05;;;;;;;1.33;1.25;;;5.60;99.90;;;;;;4993738;28;20104;-69
2021/11/21 00:45:31;;;;;;;4.22;1.85;;;5.60;99.90;;;;;;4994090;28;20118;-69
2021/11/21 00:47:57;;;;;;;0.85;0.85;;;5.60;99.90;;;;;;4994087;28;20049;-69
2021/11/21 00:50:27;;;;;;;0.52;0.52;;;5.70;99.90;;;;;;4993749;28;20030;-70
2021/11/21 00:53:00;;;;;;;0.25;0.25;;;5.60;99.90;;;;;;4993926;28;20034;-68
2021/11/21 00:55:34;;;;;;;1.15;1.08;;;5.60;99.90;;;;;;4993697;28;20034;-68
2021/11/21 00:58:02;;;;;;;17.27;2.65;;;5.60;99.90;;;;;;4993641;28;20034;-68
2021/11/21 01:00:30;;;;;;;0.63;0.30;;;5.60;99.90;;;;;;4993846;28;20068;-69
2021/11/21 01:02:56;;;;;;;9.75;3.00;;;5.60;99.90;;;;;;4992243;28;20474;-68
2021/11/21 01:05:22;;;;;;;3.35;2.03;;;5.60;99.90;;;;;;4993644;28;20088;-70
2021/11/21 01:07:48;;;;;;;0.65;0.65;;;5.50;99.90;;;;;;4993775;28;20496;-69
2021/11/21 01:10:19;;;;;;;3.10;1.70;;;5.60;99.90;;;;;;4993430;28;20120;-69
2021/11/21 01:12:46;;;;;;;0.30;0.30;;;5.60;99.90;;;;;;4993367;28;20050;-69
2021/11/21 01:15:20;;;;;;;2.13;1.92;;;5.60;99.90;;;;;;4992925;28;20039;-71
2021/11/21 01:17:47;;;;;;;0.40;0.40;;;5.60;99.90;;;;;;4995835;28;20034;-69
2021/11/21 01:20:14;;;;;;;0.20;0.20;;;5.60;99.90;;;;;;5013048;28;20037;-71
2021/11/21 01:22:39;;;;;;;0.68;0.68;;;5.70;99.90;;;;;;5012969;28;20042;-69
2021/11/21 01:25:08;;;;;;;0.45;0.45;;;5.60;99.90;;;;;;5011452;28;20371;-69
2021/11/21 01:27:35;;;;;;;1.85;1.75;;;5.60;99.90;;;;;;4999995;28;20099;-69
2021/11/21 01:30:05;;;;;;;0.57;0.57;;;5.60;99.90;;;;;;4992080;28;20030;-68
2021/11/21 01:32:34;;;;;;;4.95;3.50;;;5.70;99.90;;;;;;4991914;28;20035;-69
2021/11/21 01:35:00;;;;;;;3.30;1.17;;;5.60;99.90;;;;;;5008759;28;20551;-69
2021/11/21 01:37:25;;;;;;;3.25;3.00;;;5.60;99.90;;;;;;5011368;28;20124;-66
2021/11/21 01:39:51;;;;;;;2.92;2.35;;;5.60;99.90;;;;;;5012551;28;20021;-67
2021/11/21 01:42:18;;;;;;;2.00;1.90;;;5.60;99.90;;;;;;5012773;28;20034;-68
2021/11/21 01:44:44;;;;;;;0.10;0.10;;;5.60;99.90;;;;;;5027807;28;20049;-67
2021/11/21 01:47:10;;;;;;;0.32;0.32;;;5.60;99.90;;;;;;5011327;28;20058;-65
2021/11/21 01:49:36;;;;;;;0.10;0.10;;;5.50;99.90;;;;;;5027879;28;20104;-66
2021/11/21 01:52:03;;;;;;;0.73;0.73;;;5.50;99.90;;;;;;5011632;28;20066;-67
2021/11/21 01:54:29;;;;;;;1.58;1.48;;;5.50;99.90;;;;;;5027857;28;20030;-67
2021/11/21 01:56:55;;;;;;;2.72;2.22;;;5.60;99.90;;;;;;5001646;28;20129;-67
2021/11/21 01:59:21;;;;;;;0.13;0.13;;;5.50;99.90;;;;;;4992772;28;20034;-67
2021/11/21 02:01:47;;;;;;;2.50;1.20;;;5.60;99.90;;;;;;4993091;28;20045;-67
2021/11/21 02:04:13;;;;;;;0.30;0.30;;;5.50;99.90;;;;;;4992701;28;20035;-67
2021/11/21 02:06:39;;;;;;;0.85;0.85;;;5.50;99.90;;;;;;5009764;28;20076;-66
2021/11/21 02:09:06;;;;;;;0.77;0.77;;;5.40;99.90;;;;;;5012473;28;20069;-66
2021/11/21 02:11:32;;;;;;;0.20;0.20;;;5.40;99.90;;;;;;5012685;28;20110;-66
2021/11/21 02:13:58;;;;;;;2.63;2.42;;;5.40;99.90;;;;;;5017400;28;20052;-66
2021/11/21 02:16:27;;;;;;;0.35;0.35;;;5.40;99.90;;;;;;4992549;28;20538;-66
2021/11/21 02:18:53;;;;;;;0.32;0.32;;;5.30;99.90;;;;;;4992295;28;20031;-66
2021/11/21 02:21:21;;;;;;;3.72;1.55;;;5.30;99.90;;;;;;4992136;28;20050;-67
2021/11/21 02:23:50;;;;;;;0.20;0.20;;;5.30;99.90;;;;;;4992800;28;20106;-66
2021/11/21 02:26:17;;;;;;;19.73;2.83;;;5.20;99.90;;;;;;4994408;28;20026;-66
2021/11/21 02:28:46;;;;;;;0.10;0.10;;;5.20;99.90;;;;;;4995220;28;20026;-66
2021/11/21 02:31:13;;;;;;;0.93;0.93;;;5.20;99.90;;;;;;4996237;28;20089;-66
2021/11/21 02:33:41;;;;;;;1.67;1.58;;;5.20;99.90;;;;;;4996365;28;20046;-66
2021/11/21 02:36:09;;;;;;;2.67;2.47;;;5.20;99.90;;;;;;5011054;28;20387;-67
2021/11/21 02:38:36;;;;;;;0.82;0.82;;;5.10;99.90;;;;;;4995373;28;20034;-66
2021/11/21 02:41:06;;;;;;;1.20;1.13;;;5.10;99.90;;;;;;4995341;28;20029;-66
2021/11/21 02:43:34;;;;;;;0.10;0.10;;;5.10;99.90;;;;;;4996031;28;20046;-67
2021/11/21 02:46:00;;;;;;;0.57;0.57;;;5.10;99.90;;;;;;4996089;28;20424;-66
2021/11/21 02:48:29;;;;;;;2.15;2.05;;;5.10;99.90;;;;;;4994726;28;20034;-66
2021/11/21 02:50:57;;;;;;;2.03;1.92;;;5.10;99.90;;;;;;4998226;28;20031;-66
2021/11/21 02:53:27;;;;;;;3.40;3.10;;;5.10;99.90;;;;;;5015372;28;20026;-66
2021/11/21 02:55:56;;;;;;;0.75;0.75;;;5.00;99.90;;;;;;5015720;28;20076;-66
2021/11/21 02:58:24;;;;;;;0.90;0.90;;;5.00;99.90;;;;;;5030698;28;20030;-66
2021/11/21 03:00:52;;;;;;;2.00;1.90;;;5.00;99.90;;;;;;5015558;28;20034;-66
2021/11/21 03:03:17;;;;;;;0.50;0.45;;;5.00;99.90;;;;;;5030371;28;20061;-66
2021/11/21 03:05:43;;;;;;;0.20;0.20;;;5.00;99.90;;;;;;5015702;28;20145;-66
2021/11/21 03:08:09;;;;;;;0.95;0.88;;;5.00;99.90;;;;;;5014124;28;20029;-66
2021/11/21 03:10:36;;;;;;;0.10;0.10;;;5.00;99.90;;;;;;5014087;28;20049;-66
2021/11/21 03:13:05;;;;;;;0.10;0.10;;;5.00;99.90;;;;;;5015310;28;20509;-67
2021/11/21 03:15:33;;;;;;;1.17;0.32;;;5.00;99.90;;;;;;5030064;28;20390;-67
2021/11/21 03:17:59;;;;;;;0.20;0.20;;;5.00;99.90;;;;;;5013879;28;20045;-66
2021/11/21 03:20:30;;;;;;;0.30;0.30;;;5.00;99.90;;;;;;5015263;28;20038;-66
2021/11/21 03:22:58;;;;;;;0.93;0.77;;;5.00;99.90;;;;;;4996983;28;20023;-66
2021/11/21 03:25:25;;;;;;;1.13;1.13;;;5.00;99.90;;;;;;4995531;28;20056;-67
2021/11/21 03:27:51;;;;;;;3.63;2.95;;;5.00;99.90;;;;;;4994209;28;20045;-66
2021/11/21 03:30:21;;;;;;;0.13;0.13;;;5.00;99.90;;;;;;4995214;28;20043;-66
2021/11/21 03:32:48;;;;;;;0.30;0.30;;;5.10;99.90;;;;;;4995844;28;20162;-66
2021/11/21 03:35:15;;;;;;;4.13;1.65;;;5.00;99.90;;;;;;4995378;28;20034;-66
2021/11/21 03:37:42;;;;;;;1.10;1.00;;;5.10;99.90;;;;;;4977503;28;20034;-67
2021/11/21 03:40:12;;;;;;;0.98;0.98;;;5.00;99.90;;;;;;4995315;28;20045;-67
2021/11/21 03:42:38;;;;;;;1.17;1.17;;;5.00;99.90;;;;;;4994828;28;20037;-66
2021/11/21 03:45:08;;;;;;;2.17;2.03;;;5.00;99.90;;;;;;4994079;28;20065;-67
2021/11/21 03:47:34;;;;;;;0.82;0.82;;;5.00;99.90;;;;;;4995553;28;20049;-67
2021/11/21 03:50:00;;;;;;;2.65;2.08;;;5.00;99.90;;;;;;4993783;28;20081;-67
2021/11/21 03:52:26;;;;;;;2.65;1.45;;;5.00;99.90;;;;;;5008803;28;20034;-67
2021/11/21 03:54:52;;;;;;;0.90;0.90;;;5.00;99.90;;;;;;5014747;28;20034;-67
2021/11/21 03:57:18;;;;;;;4.43;0.75;;;5.00;99.90;;;;;;5014646;28;20121;-67
2021/11/21 03:59:44;;;;;;;0.15;0.15;;;5.00;99.90;;;;;;5014705;28;20026;-67
2021/11/21 04:02:10;;;;;;;0.40;0.40;;;5.10;99.90;;;;;;5014370;28;20038;-66
2021/11/21 04:04:35;;;;;;;0.38;0.38;;;5.10;99.90;;;;;;5014359;28;20356;-66
2021/11/21 04:07:02;;;;;;;2.72;2.08;;;5.00;99.90;;;;;;5014350;28;20061;-66
2021/11/21 04:09:28;;;;;;;0.70;0.70;;;5.00;99.90;;;;;;5014038;28;20025;-66
2021/11/21 04:11:54;;;;;;;1.45;0.82;;;5.00;99.90;;;;;;5014096;28;20034;-66
2021/11/21 04:14:20;;;;;;;1.10;1.00;;;5.00;99.90;;;;;;5012715;28;20502;-66
2021/11/21 04:16:47;;;;;;;0.45;0.45;;;5.00;99.90;;;;;;5012786;28;20038;-66
2021/11/21 04:19:13;;;;;;;4.50;2.47;;;5.00;99.90;;;;;;5011803;28;20394;-66
2021/11/21 04:21:39;;;;;;;0.43;0.43;;;5.00;99.90;;;;;;5014965;28;20108;-66
2021/11/21 04:24:06;;;;;;;1.13;1.13;;;5.00;99.90;;;;;;5028924;28;20128;-66
2021/11/21 04:26:32;;;;;;;2.10;1.95;;;5.00;99.90;;;;;;5013743;28;20079;-66
2021/11/21 04:28:58;;;;;;;2.72;1.33;;;5.00;99.90;;;;;;5014067;28;20034;-66
2021/11/21 04:31:24;;;;;;;0.68;0.68;;;4.90;99.90;;;;;;5014200;28;20041;-67
2021/11/21 04:33:50;;;;;;;2.13;2.00;;;4.90;99.90;;;;;;5013808;28;20030;-66
2021/11/21 04:36:16;;;;;;;0.52;0.52;;;4.90;99.90;;;;;;5028843;28;20033;-67
2021/11/21 04:38:42;;;;;;;3.83;1.00;;;4.90;99.90;;;;;;5013698;28;20040;-66
2021/11/21 04:41:07;;;;;;;0.10;0.10;;;4.90;99.90;;;;;;5013813;28;20068;-66
2021/11/21 04:43:33;;;;;;;3.40;2.38;;;4.90;99.90;;;;;;5013198;28;20057;-66
2021/11/21 04:45:59;;;;;;;0.10;0.10;;;4.90;99.90;;;;;;5029103;28;20489;-66
2021/11/21 04:48:26;;;;;;;2.38;1.67;;;4.90;99.90;;;;;;5012854;28;20038;-66
2021/11/21 04:50:52;;;;;;;0.63;0.63;;;4.90;99.90;;;;;;5027407;28;20030;-67
2021/11/21 04:53:18;;;;;;;2.13;1.92;;;4.90;99.90;;;;;;4976465;28;20521;-67
2021/11/21 04:55:44;;;;;;;0.30;0.30;;;4.80;99.90;;;;;;4994265;28;20042;-67
2021/11/21 04:58:14;;;;;;;0.13;0.13;;;4.80;99.90;;;;;;4993867;28;20137;-67
2021/11/21 05:00:40;;;;;;;0.25;0.25;;;4.80;99.90;;;;;;4992317;28;20145;-67
2021/11/21 05:03:06;;;;;;;0.08;0.08;;;4.80;99.90;;;;;;4992335;28;20045;-67
2021/11/21 05:05:32;;;;;;;0.30;0.30;;;4.80;99.90;;;;;;4993452;28;20034;-66
2021/11/21 05:07:58;;;;;;;0.43;0.43;;;4.80;99.90;;;;;;4993770;28;20114;-66
2021/11/21 05:10:25;;;;;;;0.98;0.98;;;4.90;99.90;;;;;;4993282;28;20030;-66
2021/11/21 05:12:51;;;;;;;0.45;0.45;;;4.80;99.90;;;;;;4993458;28;20134;-66
2021/11/21 05:15:20;;;;;;;0.75;0.75;;;4.80;99.90;;;;;;4976121;28;20375;-66
2021/11/21 05:17:48;;;;;;;0.82;0.57;;;4.80;99.90;;;;;;4993474;28;20475;-66
2021/11/21 05:20:15;;;;;;;0.93;0.88;;;4.80;99.90;;;;;;4993631;28;20479;-66
2021/11/21 05:22:41;;;;;;;0.05;0.05;;;4.80;99.90;;;;;;4991772;28;20034;-67
2021/11/21 05:25:08;;;;;;;1.60;1.52;;;4.80;99.90;;;;;;4993460;28;20042;-66
2021/11/21 05:27:34;;;;;;;0.15;0.15;;;4.80;99.90;;;;;;4993097;28;20486;-66
2021/11/21 05:29:59;;;;;;;0.25;0.25;;;4.80;99.90;;;;;;4991938;28;20130;-66
2021/11/21 05:32:25;;;;;;;0.38;0.38;;;4.80;99.90;;;;;;4992908;28;20548;-66
2021/11/21 05:34:52;;;;;;;0.32;0.32;;;4.80;99.90;;;;;;4993148;28;20116;-67
2021/11/21 05:37:18;;;;;;;0.60;0.60;;;4.80;99.90;;;;;;4993257;28;20134;-66
2021/11/21 05:39:44;;;;;;;0.10;0.10;;;4.80;99.90;;;;;;4991903;28;20034;-66
2021/11/21 05:42:10;;;;;;;0.55;0.55;;;4.80;99.90;;;;;;4993128;28;20026;-67
2021/11/21 05:44:36;;;;;;;0.30;0.30;;;4.90;99.90;;;;;;4991558;28;20054;-66
2021/11/21 05:47:02;;;;;;;0.38;0.38;;;4.90;99.90;;;;;;4991771;28;20032;-66
2021/11/21 05:49:28;;;;;;;2.55;1.17;;;4.90;99.90;;;;;;4993041;28;20444;-66
2021/11/21 05:51:54;;;;;;;0.28;0.28;;;4.90;99.90;;;;;;5002945;28;20113;-66
2021/11/21 05:54:19;;;;;;;1.02;1.00;;;5.00;99.90;;;;;;5012349;28;20045;-66
2021/11/21 05:56:45;;;;;;;0.55;0.55;;;5.00;99.90;;;;;;5012413;28;20030;-66
2021/11/21 05:59:11;;;;;;;0.75;0.40;;;5.00;99.90;;;;;;5011677;28;20073;-66
2021/11/21 06:01:37;;;;;;;0.63;0.63;;;5.00;99.90;;;;;;5016319;28;20030;-66
2021/11/21 06:04:03;;;;;;;6.50;2.63;;;5.00;99.90;;;;;;5016671;28;20412;-66
2021/11/21 06:06:29;;;;;;;0.50;0.50;;;5.00;99.90;;;;;;5016435;28;20042;-66
2021/11/21 06:08:56;;;;;;;0.22;0.22;;;5.00;99.90;;;;;;5016484;28;20045;-66
2021/11/21 06:11:22;;;;;;;0.85;0.85;;;5.00;99.90;;;;;;5016248;28;20034;-66
2021/11/21 06:13:48;;;;;;;0.00;0.00;;;5.00;99.90;;;;;;5016589;28;20103;-66
2021/11/21 06:16:13;;;;;;;0.10;0.10;;;5.00;99.90;;;;;;5000236;28;20038;-66
2021/11/21 06:18:39;;;;;;;0.95;0.95;;;5.00;99.90;;;;;;4996617;28;20042;-66
2021/11/21 06:21:05;;;;;;;0.28;0.28;;;4.90;99.90;;;;;;4996834;28;20058;-66
2021/11/21 06:23:33;;;;;;;0.15;0.15;;;4.90;99.90;;;;;;4996271;28;20053;-67
2021/11/21 06:26:04;;;;;;;0.22;0.22;;;4.90;99.90;;;;;;4996393;28;20487;-66
2021/11/21 06:28:30;;;;;;;0.00;0.00;;;4.90;99.90;;;;;;4996209;28;20023;-66
2021/11/21 06:30:56;;;;;;;3.20;1.67;;;5.00;99.90;;;;;;4995416;28;20031;-66
2021/11/21 06:33:22;;;;;;;0.10;0.10;;;5.00;99.90;;;;;;4996674;28;20542;-66
2021/11/21 06:35:50;;;;;;;0.10;0.10;;;5.00;99.90;;;;;;4996472;28;20034;-66
2021/11/21 06:38:17;;;;;;;0.65;0.65;;;4.90;99.90;;;;;;4996271;28;20038;-67
2021/11/21 06:40:44;;;;;;;0.08;0.08;;;5.00;99.90;;;;;;4996480;28;20042;-66
2021/11/21 06:43:10;;;;;;;0.10;0.10;;;5.00;99.90;;;;;;4994912;28;20096;-67
2021/11/21 06:45:36;;;;;;;1.33;1.30;;;5.00;99.90;;;;;;4996328;28;20030;-66
2021/11/21 06:48:09;;;;;;;0.10;0.10;;;5.00;99.90;;;;;;4978786;28;20368;-67
2021/11/21 06:50:35;;;;;;;0.63;0.63;;;5.00;99.90;;;;;;4995967;28;20046;-66
2021/11/21 06:53:01;;;;;;;0.60;0.60;;;5.00;99.90;;;;;;4994830;28;20042;-67
2021/11/21 06:55:27;;;;;;;0.10;0.10;;;5.00;99.90;;;;;;4978366;28;20030;-67
2021/11/21 06:57:53;;;;;;;1.75;1.27;;;4.90;99.90;;;;;;4996238;28;20038;-67
2021/11/21 07:00:19;;;;;;;0.25;0.25;;;5.00;99.90;;;;;;4994978;28;20038;-66
2021/11/21 07:02:45;;;;;;;0.30;0.30;;;5.00;99.90;;;;;;4995487;28;20085;-65
2021/11/21 07:05:11;;;;;;;1.85;1.35;;;5.00;99.90;;;;;;4994779;28;20046;-66
2021/11/21 07:07:38;;;;;;;0.22;0.22;;;5.00;99.90;;;;;;4994838;28;20513;-66
2021/11/21 07:10:06;;;;;;;0.20;0.20;;;5.00;99.90;;;;;;4995471;28;20046;-66
2021/11/21 07:12:32;;;;;;;0.68;0.65;;;5.00;99.90;;;;;;4994485;28;20088;-66
2021/11/21 07:14:58;;;;;;;0.10;0.10;;;5.00;99.90;;;;;;4995858;28;20426;-67
2021/11/21 07:17:24;;;;;;;0.40;0.40;;;5.00;99.90;;;;;;4994558;28;20031;-67
2021/11/21 07:19:50;;;;;;;0.10;0.10;;;5.00;99.90;;;;;;4995205;28;20034;-67
2021/11/21 07:22:16;;;;;;;0.77;0.57;;;5.00;99.90;;;;;;4995698;28;20109;-66
2021/11/21 07:24:41;;;;;;;0.40;0.40;;;5.00;99.90;;;;;;4993988;28;20038;-66
2021/11/21 07:27:07;;;;;;;0.20;0.20;;;5.00;99.90;;;;;;4995350;28;20641;-64
2021/11/21 07:29:33;;;;;;;1.00;1.00;;;5.00;99.90;;;;;;4995053;28;20034;-65
2021/11/21 07:32:03;;;;;;;1.55;1.00;;;5.00;99.90;;;;;;4995387;28;20034;-66
2021/11/21 07:34:29;;;;;;;0.57;0.57;;;5.00;99.90;;;;;;4995055;28;20040;-65
2021/11/21 07:36:55;;;;;;;1.55;1.23;;;5.10;99.90;;;;;;4994061;28;20081;-65
2021/11/21 07:39:22;;;;;;;0.10;0.10;;;5.10;99.90;;;;;;4994148;28;20423;-63
2021/11/21 07:41:48;;;;;;;0.20;0.20;;;5.10;99.90;;;;;;4995162;28;20030;-62
2021/11/21 07:44:14;;;;;;;5.93;1.65;;;5.10;99.90;;;;;;4994581;28;20410;-63
2021/11/21 07:46:41;;;;;;;0.17;0.17;;;5.10;99.90;;;;;;4993841;28;20449;-62
2021/11/21 07:49:08;;;;;;;0.40;0.40;;;5.10;99.90;;;;;;4993677;28;20050;-63
2021/11/21 07:51:34;;;;;;;0.52;0.52;;;5.10;99.90;;;;;;4994812;28;20030;-63
2021/11/21 07:53:59;;;;;;;0.17;0.17;;;5.10;99.90;;;;;;4993563;28;20490;-63
2021/11/21 07:56:25;;;;;;;0.03;0.03;;;5.00;99.90;;;;;;4994733;28;20038;-65
2021/11/21 07:58:51;;;;;;;4.47;2.33;;;5.00;99.90;;;;;;4994855;28;20093;-65
2021/11/21 08:01:18;;;;;;;0.20;0.20;;;5.00;99.90;;;;;;4993767;28;20031;-65
2021/11/21 08:03:44;;;;;;;0.10;0.10;;;5.00;99.90;;;;;;4994368;28;20026;-64
2021/11/21 08:06:13;;;;;;;0.17;0.17;;;5.10;99.90;;;;;;4993622;28;20026;-64
2021/11/21 08:08:39;;;;;;;0.20;0.20;;;5.00;99.90;;;;;;4993055;28;20031;-63
2021/11/21 08:11:06;;;;;;;1.10;0.95;;;5.00;99.90;;;;;;4994759;28;20030;-64
2021/11/21 08:13:32;;;;;;;0.10;0.10;;;5.10;99.90;;;;;;4993460;28;20117;-64
2021/11/21 08:15:58;;;;;;;0.65;0.65;;;5.00;99.90;;;;;;4994703;28;20038;-62
2021/11/21 08:18:24;;;;;;;0.20;0.20;;;5.00;99.90;;;;;;4994307;28;20046;-63
2021/11/21 08:20:52;;;;;;;0.20;0.20;;;5.00;99.90;;;;;;4994094;28;20088;-63
2021/11/21 08:23:19;;;;;;;0.10;0.10;;;5.10;99.90;;;;;;4992367;28;20030;-64
2021/11/21 08:25:44;;;;;;;0.10;0.10;;;5.00;99.90;;;;;;4994029;28;20042;-64
2021/11/21 08:28:10;;;;;;;0.10;0.10;;;5.00;99.90;;;;;;4994171;28;20057;-64
2021/11/21 08:30:38;;;;;;;0.10;0.10;;;5.10;99.90;;;;;;4993086;28;20035;-64
2021/11/21 08:33:10;;;;;;;0.10;0.10;;;5.00;99.90;;;;;;4994040;28;20093;-65
2021/11/21 08:35:37;;;;;;;0.10;0.10;;;5.00;99.90;;;;;;4992822;28;20084;-64
2021/11/21 08:38:05;;;;;;;0.10;0.10;;;5.10;99.90;;;;;;4992984;28;20038;-62
2021/11/21 08:40:31;;;;;;;0.10;0.10;;;5.10;99.90;;;;;;4994027;28;20106;-64
2021/11/21 08:42:59;;;;;;;1.85;1.00;;;5.10;99.90;;;;;;4993793;28;20042;-63
2021/11/21 08:45:27;;;;;;;0.10;0.10;;;5.20;99.90;;;;;;4992834;28;20041;-63
2021/11/21 08:47:54;;;;;;;0.10;0.10;;;5.20;99.90;;;;;;4993598;28;20497;-63
2021/11/21 08:50:20;;;;;;;0.10;0.10;;;5.10;99.90;;;;;;4993706;28;20042;-64
2021/11/21 08:52:46;;;;;;;0.93;0.88;;;5.10;99.90;;;;;;4993616;28;20034;-64
2021/11/21 08:55:13;;;;;;;0.10;0.10;;;5.10;99.90;;;;;;4994008;28;20042;-64
2021/11/21 08:57:40;;;;;;;0.30;0.30;;;5.10;99.90;;;;;;4992378;28;20041;-64
2021/11/21 09:00:09;;;;;;;0.73;0.73;;;5.10;99.90;;;;;;4993559;28;20034;-71
2021/11/21 09:02:37;;;;;;;0.63;0.63;;;5.10;99.90;;;;;;4993196;28;20522;-61
2021/11/21 09:05:06;;;;;;;1.05;0.63;;;5.20;99.90;;;;;;4993370;28;20034;-64
2021/11/21 09:07:34;;;;;;;0.03;0.03;;;5.20;99.90;;;;;;4993280;28;20037;-65
2021/11/21 09:10:00;;;;;;;0.10;0.10;;;5.20;99.90;;;;;;4992147;28;20490;-63
2021/11/21 09:12:26;;;;;;;0.10;0.10;;;5.30;99.90;;;;;;4993667;28;20346;-63
2021/11/21 09:14:53;;;;;;;0.20;0.20;;;5.30;99.90;;;;;;4993432;28;20096;-63
2021/11/21 09:17:19;;;;;;;0.10;0.10;;;5.30;99.90;;;;;;4993168;28;20026;-63
2021/11/21 09:19:46;;;;;;;0.00;0.00;;;5.40;99.90;;;;;;4991955;28;20034;-63
2021/11/21 09:22:12;;;;;;;0.57;0.57;;;5.40;99.90;;;;;;4993514;28;20026;-63
2021/11/21 09:24:37;;;;;;;0.57;0.57;;;5.40;99.90;;;;;;4993122;28;20027;-66
2021/11/21 09:27:04;;;;;;;0.00;0.00;;;5.40;99.90;;;;;;4993062;28;20034;-66
2021/11/21 09:29:29;;;;;;;0.20;0.20;;;5.50;99.90;;;;;;4992077;28;20109;-65
2021/11/21 09:31:55;;;;;;;0.80;0.80;;;5.50;99.90;;;;;;4993009;28;20475;-64
2021/11/21 09:34:21;;;;;;;0.30;0.30;;;5.50;99.90;;;;;;4993090;28;20084;-64
2021/11/21 09:36:47;;;;;;;3.10;0.98;;;5.50;99.90;;;;;;4992887;28;20030;-68
2021/11/21 09:39:13;;;;;;;0.00;0.00;;;5.50;99.90;;;;;;4993026;28;20042;-64
2021/11/21 09:41:40;;;;;;;0.30;0.30;;;5.50;99.90;;;;;;4992753;28;20077;-64
2021/11/21 09:44:06;;;;;;;0.10;0.10;;;5.50;99.90;;;;;;4991400;28;20133;-64
2021/11/21 09:46:36;;;;;;;0.00;0.00;;;5.50;99.90;;;;;;4992026;28;20074;-63
2021/11/21 09:49:02;;;;;;;9.55;1.65;;;5.60;99.90;;;;;;4993158;28;20045;-62
2021/11/21 09:51:28;;;;;;;0.00;0.00;;;5.60;99.90;;;;;;4991923;28;20026;-64
2021/11/21 09:53:53;;;;;;;0.38;0.38;;;5.60;99.90;;;;;;4993046;28;20066;-64
2021/11/21 09:56:19;;;;;;;0.00;0.00;;;5.60;99.90;;;;;;4993140;28;20035;-64
2021/11/21 09:58:45;;;;;;;0.08;0.08;;;5.70;99.90;;;;;;4991314;28;20034;-64
2021/11/21 10:01:41;;;;;;;0.10;0.10;;;5.70;99.90;;;;;;4992836;28;20106;-64
2021/11/21 10:04:10;;;;;;;0.10;0.10;;;5.70;99.90;;;;;;4993061;28;20061;-64
2021/11/21 10:06:48;;;;;;;0.00;0.00;;;5.70;99.90;;;;;;4992947;28;20037;-64
2021/11/21 10:09:19;;;;;;;0.00;0.00;;;5.70;99.90;;;;;;4992881;28;20030;-64
2021/11/21 10:12:05;;;;;;;0.20;0.20;;;5.70;99.90;;;;;;4992619;28;20031;-63
2021/11/21 10:14:33;;;;;;;0.10;0.10;;;5.70;99.90;;;;;;4992936;28;20046;-64
2021/11/21 10:16:59;;;;;;;0.10;0.10;;;5.70;99.90;;;;;;4990954;28;20050;-63
2021/11/21 10:19:24;;;;;;;0.10;0.10;;;5.80;99.90;;;;;;5007666;28;20121;-63
2021/11/21 10:21:58;;;;;;;0.00;0.00;;;5.80;99.90;;;;;;4992332;28;20089;-63
2021/11/21 10:24:30;;;;;;;0.10;0.10;;;5.90;99.90;;;;;;4992545;28;20042;-64
2021/11/21 10:27:16;;;;;;;0.10;0.10;;;5.90;99.90;;;;;;4992782;28;20109;-64
2021/11/21 10:29:50;;;;;;;0.00;0.00;;;6.00;99.90;;;;;;4991563;28;20034;-64
2021/11/21 10:32:34;;;;;;;0.73;0.73;;;6.10;99.90;;;;;;4992961;28;20038;-62
2021/11/21 10:35:23;;;;;;;0.22;0.22;;;6.00;99.90;;;;;;4991272;28;20044;-62
2021/11/21 10:37:49;;;;;;;0.03;0.03;;;6.00;99.90;;;;;;4991326;28;20510;-62
2021/11/21 10:40:18;;;;;;;0.10;0.10;;;6.00;99.90;;;;;;4992424;28;20034;-62
2021/11/21 10:42:48;;;;;;;0.20;0.20;;;6.00;99.90;;;;;;4992071;28;20128;-62
2021/11/21 10:45:20;;;;;;;0.00;0.00;;;6.00;99.90;;;;;;4991183;28;20080;-61
2021/11/21 10:47:57;;;;;;;0.10;0.10;;;6.10;99.90;;;;;;4993441;28;20038;-62
2021/11/21 10:50:40;;;;;;;0.30;0.30;;;6.10;99.90;;;;;;4995144;28;20031;-61
2021/11/21 10:53:12;;;;;;;0.13;0.13;;;6.30;99.90;;;;;;4996286;28;20034;-62
2021/11/21 10:55:42;;;;;;;0.08;0.08;;;6.40;99.90;;;;;;4995833;28;20475;-62
2021/11/21 10:58:15;;;;;;;0.10;0.10;;;6.40;99.90;;;;;;4996166;28;20536;-62
2021/11/21 11:00:43;;;;;;;0.35;0.35;;;6.40;99.90;;;;;;4995846;28;20038;-62
2021/11/21 11:03:20;;;;;;;0.10;0.10;;;6.40;99.90;;;;;;4994515;28;20105;-62
2021/11/21 11:05:46;;;;;;;0.10;0.10;;;6.40;99.90;;;;;;4994398;28;20034;-62
2021/11/21 11:08:29;;;;;;;0.00;0.00;;;6.30;99.90;;;;;;4994492;28;20022;-62
2021/11/21 11:10:55;;;;;;;0.10;0.10;;;6.30;99.90;;;;;;4995688;28;20117;-62
2021/11/21 11:13:23;;;;;;;0.00;0.00;;;6.20;99.90;;;;;;4995935;28;20054;-62
2021/11/21 11:15:50;;;;;;;0.10;0.10;;;6.20;99.90;;;;;;4995330;28;20483;-62
2021/11/21 11:18:17;;;;;;;0.08;0.08;;;6.20;99.90;;;;;;4995803;28;20042;-63
2021/11/21 11:20:49;;;;;;;0.10;0.10;;;6.20;99.90;;;;;;4995638;28;20026;-63
2021/11/21 11:23:17;;;;;;;0.10;0.10;;;6.20;99.90;;;;;;4994635;28;20026;-62
2021/11/21 11:25:45;;;;;;;0.40;0.40;;;6.10;99.90;;;;;;4995256;28;20038;-62
2021/11/21 11:28:33;;;;;;;0.17;0.17;;;6.10;99.90;;;;;;4995307;28;20038;-62
2021/11/21 11:31:01;;;;;;;0.20;0.20;;;6.10;99.90;;;;;;4994203;28;20121;-63
2021/11/21 11:33:39;;;;;;;0.10;0.10;;;6.00;99.90;;;;;;4994120;28;20038;-62
2021/11/21 11:36:20;;;;;;;0.63;0.63;;;6.00;99.90;;;;;;4995055;28;20040;-62
2021/11/21 11:39:05;;;;;;;0.00;0.00;;;6.00;99.90;;;;;;4995138;28;20034;-63
2021/11/21 11:41:32;;;;;;;0.10;0.10;;;6.00;99.90;;;;;;4995392;28;20430;-63
2021/11/21 11:44:02;;;;;;;0.05;0.05;;;6.00;99.90;;;;;;5009942;28;20042;-63
2021/11/21 11:46:34;;;;;;;0.10;0.10;;;6.10;99.90;;;;;;4995405;28;20381;-63
2021/11/21 11:49:12;;;;;;;0.00;0.00;;;6.10;99.90;;;;;;4995115;28;20490;-63
2021/11/21 11:51:41;;;;;;;0.10;0.10;;;6.10;99.90;;;;;;4993880;28;20058;-63
2021/11/21 11:54:15;;;;;;;0.10;0.10;;;6.10;99.90;;;;;;4994663;28;20069;-62
2021/11/21 11:56:50;;;;;;;0.20;0.20;;;6.10;99.90;;;;;;5010026;28;20133;-62
2021/11/21 11:59:32;;;;;;;0.20;0.20;;;6.10;99.90;;;;;;4993486;28;20085;-63
2021/11/21 12:02:27;;;;;;;0.08;0.08;;;6.20;99.90;;;;;;4994593;28;20509;-62
2021/11/21 12:04:55;;;;;;;0.10;0.10;;;6.30;99.90;;;;;;4994217;28;20074;-62
2021/11/21 12:07:25;;;;;;;1.33;1.23;;;6.40;99.90;;;;;;4994908;28;20037;-62
2021/11/21 12:10:15;;;;;;;2.83;0.85;;;6.40;99.90;;;;;;4994540;28;20031;-62
2021/11/21 12:13:09;;;;;;;0.10;0.10;;;6.40;99.90;;;;;;4994747;28;20030;-62
2021/11/21 12:15:51;;;;;;;0.00;0.00;;;6.50;99.90;;;;;;4994729;28;20042;-62
2021/11/21 12:18:19;;;;;;;;;;;6.50;99.90;;;;;;4994953;28;20117;-62
2021/11/21 12:20:46;;;;;;;0.00;0.00;;;6.50;99.90;;;;;;4993527;28;20004;-62
2021/11/21 12:23:15;;;;;;;0.00;0.00;;;6.50;99.90;;;;;;4994161;28;20034;-61
2021/11/21 12:25:42;;;;;;;0.00;0.00;;;6.50;99.90;;;;;;4994367;28;20425;-61
2021/11/21 12:28:08;;;;;;;0.10;0.10;;;6.40;99.90;;;;;;4976863;28;20062;-61
2021/11/21 12:30:37;;;;;;;0.00;0.00;;;6.60;99.90;;;;;;4994251;28;20061;-62
2021/11/21 12:33:27;;;;;;;0.00;0.00;;;6.50;99.90;;;;;;4992854;28;20057;-62
2021/11/21 12:35:54;;;;;;;0.13;0.13;;;6.50;99.90;;;;;;4993094;28;20084;-61
2021/11/21 12:38:23;;;;;;;0.03;0.03;;;6.50;99.90;;;;;;4976559;28;20482;-61
2021/11/21 12:40:59;;;;;;;0.20;0.20;;;6.50;99.90;;;;;;4994202;28;20046;-61
2021/11/21 12:43:26;;;;;;;0.00;0.00;;;6.60;99.90;;;;;;4992671;28;20066;-61
2021/11/21 12:45:59;;;;;;;0.20;0.20;;;6.60;99.90;;;;;;4994030;28;20038;-61
2021/11/21 12:48:27;;;;;;;0.40;0.40;;;6.60;99.90;;;;;;4993799;28;20035;-61
2021/11/21 12:51:04;;;;;;;0.17;0.17;;;6.60;99.90;;;;;;4993948;28;20049;-61
2021/11/21 12:53:35;;;;;;;0.10;0.10;;;6.60;99.90;;;;;;4993683;28;20034;-61
2021/11/21 12:56:17;;;;;;;0.20;0.20;;;6.60;99.90;;;;;;4993882;28;20042;-61
2021/11/21 12:58:45;;;;;;;0.00;0.00;;;6.60;99.90;;;;;;4993682;28;20061;-61
2021/11/21 13:01:16;;;;;;;68.05;3.30;;;6.60;99.90;;;;;;4993259;28;20061;-59
2021/11/21 13:03:42;;;;;;;0.13;0.13;;;6.60;99.90;;;;;;4993721;28;20038;-61